AirNav   ATP
 
 1485 users online  

41A Reeves Airport
Tallassee, Alabama, USA

GOING TO TALLASSEE?


FAA INFORMATION EFFECTIVE 04 JANUARY 2018

Location

FAA Identifier: 41A
Lat/Long: 32-30-53.8000N / 085-52-34.3000W
32-30.896667N / 085-52.571667W
32.5149444 / -85.8761944
(estimated)
Elevation: 326 ft. / 99.4 m (surveyed)
Variation: 02W (1995)
From city: 2 miles SE of TALLASSEE, AL
Time zone: UTC -6 (UTC -5 during Daylight Saving Time)
Zip code: 36078

Airport Operations

Airport use: Open to the public
Activation date: 04/1996
Control tower: no
ARTCC: ATLANTA CENTER
FSS: ANNISTON FLIGHT SERVICE STATION
NOTAMs facility: ANB (NOTAM-D service available)
Attendance: UNATNDD
Wind indicator: lighted
Segmented circle: no
Beacon: white-green (lighted land airport)
Operates sunset to sunrise.

Airport Communications

CTAF: 122.9

Nearby radio navigation aids

VOR radial/distance  VOR name  Freq  Var
TGEr278/10.6TUSKEGEE VOR/DME117.3002E
MGMr049/28.5MONTGOMERY VORTAC112.1003E

Airport Services

Airframe service: NONE

Runway Information

Runway 13/31

Dimensions: 3207 x 75 ft. / 977 x 23 m
Surface: asphalt, in poor condition
CRACKING WITH VEGETATION VISIBLE ON RWY. SECTION OF ASPHALT MISSING RIGHT SIDE OF RWY 13.
Runway edge lights: medium intensity
Runway edge markings: RUNWAY MARKINGS FADED
RUNWAY 13  RUNWAY 31
Latitude: 32-31.074193N32-30.717660N
Longitude: 085-52.801500W085-52.340203W
Elevation: 320.0 ft.326.0 ft.
Traffic pattern: leftleft
Runway heading: 134 magnetic, 132 true314 magnetic, 312 true
Markings: NSTD, in poor conditionNSTD, in poor condition
Obstructions: 16 ft. trees, 387 ft. from runway, 142 ft. right of centerline, 11:1 slope to clear53 ft. tree, 1470 ft. from runway, 99 ft. left of centerline, 23:1 slope to clear

Airport Ownership and Management from official FAA records

Ownership: Publicly-owned
Owner: CITY OF TALLASSEE
3 FREEMAN AVENUE
TALLASSEE, AL 36078
Phone 334-283-6571
Manager: JOHNNY HAMMOCK, MAYOR
CITY OF TALLASSEE, 3 FREEMAN AVE
TALLASSEE, AL 36078
Phone 334-283-6571

Airport Operational Statistics

Aircraft based on the field: 4
Single engine airplanes: 3
Multi engine airplanes: 1
    
Aircraft operations: avg 88/week *
76% transient general aviation
24% local general aviation
* for 12-month period ending 23 June 2017

Instrument Procedures

There are no published instrument procedures at 41A.

Some nearby airports with instrument procedures:

06A - Moton Field Municipal Airport (10 nm E)
08A - Wetumpka Municipal Airport (23 nm W)
KAUO - Auburn University Regional Airport (23 nm E)
KALX - Thomas C Russell Field Airport (24 nm N)
KMXF - Maxwell Air Force Base (26 nm W)
 
Loc | Ops | Rwys | IFR | FBO | Links
Com | Nav | Svcs | Stats | Notes


 
Area around 41A (Reeves Airport)
 
Road maps at: MapQuest Bing Google
 
Aerial photo
WARNING: Photo may not be current or correct
Aerial photo of 41A (Reeves Airport)
Photo by Don Neuberg, Outwardbound Photography
Photo taken 13-Jan-2012
looking northwest.

Do you have a better or more recent aerial photo of Reeves Airport that you would like to share? If so, please send us your photo.

 
Sectional chart

 
Airport distance calculator
Flying to Reeves Airport? Find the distance to fly.

From to 41A

Sunrise and sunset
Times for 18-Jan-2018
 Local
(UTC-6)
 Zulu
(UTC)
Morning civil twilight06:1912:19
Sunrise06:4612:46
Sunset17:0223:02
Evening civil twilight17:2923:29

Current date and time
Zulu (UTC)  18-Jan-2018 17:41:49
Local (UTC-6)  18-Jan-2018 11:41:49
 
METAR
KAUO 
24nm E 
181656Z AUTO 35006KT 10SM CLR 01/M12 A3047 RMK AO2 SLP345 T00111122 FZRANO
KALX 
25nm N 
181715Z AUTO 01004KT 10SM CLR 01/M09 A3047 RMK AO2 T00051091
KMXF 
26nm W 
181656Z AUTO 32004KT 10SM CLR 00/M11 A3052 RMK AO2 SLP340 T10011109 $
KMGM 
30nm SW 
181653Z 32005KT 10SM CLR M01/M12 A3054 RMK AO2 SLP343 T10111117
K1A9 
33nm W 
181715Z AUTO 29004KT 10SM CLR 01/M11 A3052 RMK AO2 T00051106
KTOI 
41nm S 
181653Z AUTO 32006KT 10SM CLR 01/M11 A3050 RMK AO2 SLP331 T00111106
KSCD 
45nm NW 
181715Z AUTO 00000KT 10SM CLR 00/M09 A3052 RMK AO2 T00031092
KLSF 
46nm E 
181656Z AUTO 34004KT 10SM CLR 01/M11 A3047 RMK AO2 SLP326 T00051109
KCSG 
47nm E 
181651Z 32006KT 10SM CLR 01/M12 A3048 RMK AO2 SLP325 T00111122
TAF
KMXF 
26nm W 
181200Z 1812/1918 32009KT 9999 SKC QNH3035INS BECMG 1821/1822 30006KT 9999 SKC QNH3031INS TX09/1821Z TNM10/1812Z
KMGM 
30nm SW 
181138Z 1812/1912 27005KT P6SM SKC FM181500 33007KT P6SM SKC FM190000 00000KT P6SM SKC
NOTAMs
Click for the latest NOTAMs
NOTAMs are issued by the DoD/FAA and will open in a separate window not controlled by AirNav.

 

 
 

Would you like to see your business listed on this page?

 If your business provides an interesting product or service to pilots, flight crews, aircraft, or users of the Reeves Airport, you should consider listing it here.  To start the listing process, click on the button below
 
Add a business
 

Other Pages about Reeves Airport

Update a link
 
Copyright © AirNav, LLC. All rights reserved. Privacy Policy  Contact